14°C Temp
12°C Dewpoint
88% Humidity
Temperature
11 KM/H
7 MPH
6 KTS
290°
West North
West

Wind Speed
Mostly Scattered
Clouds
Pressure 1020.92 (hPa) - 30.15 (in)
Visibility 6.2 (mi) - 10.0 (km)

Current Conditions
YPJT
Location 6(km)
Metar :YPJT 071100Z AUTO 29006KT 9999 // SCT028 SCT037 SCT043 14/12 Q1021
Tue 7th July 19:00 pm

Airport
  Metar Aviation API Data Provided by https://www.checkwx.com/ PHP scripts by weather34.com ©2020